Time;durP1;ratioP1;P1;durP2;ratioP2;P2;SDS_P1;SDS_P2;PMS_P1;PMS_P2;Temp;Humidity;BMP_temperature;BMP_pressure;BME280_temperature;BME280_humidity;BME280_pressure;Samples;Min_cycle;Max_cycle;Signal;HPM_P1;HPM_P2
2022/02/17 00:00:09;;;;;;;2.40;1.45;;;;;;;12.50;100.00;98089.00;5032874;28;20289;-80
2022/02/17 00:02:35;;;;;;;2.10;1.42;;;;;;;12.55;100.00;98089.47;5032210;28;20281;-80
2022/02/17 00:05:02;;;;;;;2.50;1.10;;;;;;;12.56;100.00;98084.94;5033236;28;20644;-81
2022/02/17 00:07:29;;;;;;;2.22;1.10;;;;;;;12.58;100.00;98089.19;5032627;28;20322;-80
2022/02/17 00:09:56;;;;;;;3.28;1.45;;;;;;;12.56;100.00;98103.81;5032555;28;20222;-80
2022/02/17 00:12:22;;;;;;;2.65;1.40;;;;;;;12.52;100.00;98117.56;5032888;28;20276;-80
2022/02/17 00:14:50;;;;;;;1.63;1.10;;;;;;;12.64;100.00;98104.84;5032942;28;20202;-80
2022/02/17 00:17:17;;;;;;;3.30;1.48;;;;;;;12.59;100.00;98090.88;5032313;28;20206;-80
2022/02/17 00:19:44;;;;;;;2.72;1.38;;;;;;;12.59;100.00;98088.19;5032189;28;20197;-80
2022/02/17 00:22:10;;;;;;;2.78;1.30;;;;;;;12.61;100.00;98107.81;5032956;28;20672;-80
2022/02/17 00:24:37;;;;;;;1.80;1.25;;;;;;;12.62;100.00;98089.78;5032224;28;20225;-81
2022/02/17 00:27:04;;;;;;;1.88;1.05;;;;;;;12.62;100.00;98096.03;5032289;28;20597;-80
2022/02/17 00:29:30;;;;;;;1.95;1.10;;;;;;;12.63;100.00;98100.41;5031605;28;20305;-81
2022/02/17 00:31:59;;;;;;;1.52;1.20;;;;;;;12.72;100.00;98104.13;5031967;28;20229;-81
2022/02/17 00:34:25;;;;;;;2.85;1.10;;;;;;;12.69;100.00;98102.56;5032396;28;20195;-80
2022/02/17 00:36:52;;;;;;;2.00;1.00;;;;;;;12.79;100.00;98099.88;5031550;28;20190;-80
2022/02/17 00:39:20;;;;;;;3.15;0.80;;;;;;;12.79;100.00;98062.06;5032002;28;20199;-79
2022/02/17 00:41:47;;;;;;;2.78;0.90;;;;;;;12.71;100.00;98084.38;5032295;28;20341;-80
2022/02/17 00:44:13;;;;;;;1.65;0.90;;;;;;;12.70;100.00;98076.41;5031751;28;20202;-80
2022/02/17 00:46:40;;;;;;;1.00;0.77;;;;;;;12.66;100.00;98083.09;5031879;28;20550;-80
2022/02/17 00:49:08;;;;;;;2.05;0.93;;;;;;;12.65;100.00;98097.59;5031821;28;20554;-80
2022/02/17 00:51:35;;;;;;;1.95;0.85;;;;;;;12.59;100.00;98080.09;5032372;28;20196;-81
2022/02/17 00:54:01;;;;;;;3.05;0.90;;;;;;;12.59;100.00;98079.22;5031841;28;20258;-80
2022/02/17 00:56:28;;;;;;;1.85;1.23;;;;;;;12.52;100.00;98087.03;5032022;28;20190;-80
2022/02/17 00:58:55;;;;;;;1.40;0.93;;;;;;;12.49;100.00;98079.22;5031698;28;20244;-81
2022/02/17 01:01:21;;;;;;;2.42;1.10;;;;;;;12.42;100.00;98078.06;5031789;28;20557;-80
2022/02/17 01:03:48;;;;;;;1.88;1.23;;;;;;;12.42;100.00;98056.47;5032013;28;20269;-80
2022/02/17 01:06:17;;;;;;;1.95;0.85;;;;;;;12.44;100.00;98084.19;5031810;28;20687;-79
2022/02/17 01:08:43;;;;;;;1.67;0.80;;;;;;;12.42;100.00;98078.91;5031849;28;20560;-79
2022/02/17 01:11:10;;;;;;;1.90;1.08;;;;;;;12.50;100.00;98075.53;5031664;28;20285;-80
2022/02/17 01:13:37;;;;;;;1.50;0.95;;;;;;;12.48;100.00;98081.06;5031648;28;20197;-80
2022/02/17 01:16:03;;;;;;;1.88;0.98;;;;;;;12.49;100.00;98053.06;5031881;28;20663;-79
2022/02/17 01:18:30;;;;;;;2.03;1.10;;;;;;;12.51;100.00;98082.63;5031813;28;20557;-80
2022/02/17 01:20:57;;;;;;;2.08;1.13;;;;;;;12.52;100.00;98066.28;5030938;28;20193;-79
2022/02/17 01:23:25;;;;;;;2.30;0.80;;;;;;;12.54;100.00;98063.47;5031479;28;20233;-80
2022/02/17 01:25:52;;;;;;;1.40;0.80;;;;;;;12.56;100.00;98074.13;5031456;28;20203;-80
2022/02/17 01:28:18;;;;;;;2.38;1.20;;;;;;;12.58;100.00;98055.94;5031464;28;20206;-80
2022/02/17 01:30:45;;;;;;;3.15;1.00;;;;;;;12.57;100.00;98068.56;5031474;28;20233;-80
2022/02/17 01:33:12;;;;;;;1.35;0.90;;;;;;;12.66;100.00;98080.38;5031686;28;20194;-81
2022/02/17 01:35:38;;;;;;;1.65;1.02;;;;;;;12.68;100.00;98073.84;5031640;28;20187;-80
2022/02/17 01:38:08;;;;;;;1.67;1.00;;;;;;;12.72;100.00;98071.72;5031244;28;20190;-80
2022/02/17 01:40:36;;;;;;;1.30;0.90;;;;;;;12.82;100.00;98056.41;5031481;28;20200;-79
2022/02/17 01:43:03;;;;;;;1.08;0.63;;;;;;;12.84;100.00;98051.69;5035232;28;20255;-80
2022/02/17 01:45:30;;;;;;;1.10;0.70;;;;;;;12.84;100.00;98040.88;5035325;28;20197;-80
2022/02/17 01:47:57;;;;;;;1.33;0.85;;;;;;;12.88;100.00;98022.56;5034600;28;20234;-80
2022/02/17 01:50:23;;;;;;;3.17;0.88;;;;;;;12.88;100.00;98047.72;5035391;28;20620;-80
2022/02/17 01:52:50;;;;;;;1.08;0.80;;;;;;;12.91;100.00;98054.69;5035124;28;20190;-80
2022/02/17 01:55:17;;;;;;;1.30;0.77;;;;;;;12.89;100.00;98040.50;5035585;28;20195;-80
2022/02/17 01:57:45;;;;;;;1.50;0.70;;;;;;;12.89;100.00;98046.75;5035100;28;20289;-80
2022/02/17 02:00:12;;;;;;;1.10;0.70;;;;;;;12.88;100.00;98041.47;5034906;28;20210;-80
2022/02/17 02:02:39;;;;;;;1.80;0.80;;;;;;;12.85;100.00;98057.97;5035388;28;20660;-80
2022/02/17 02:05:06;;;;;;;1.20;0.68;;;;;;;12.94;100.00;98047.16;5035250;28;20559;-80
2022/02/17 02:07:33;;;;;;;1.27;0.80;;;;;;;12.94;100.00;98033.66;5034924;28;20208;-80
2022/02/17 02:10:00;;;;;;;1.48;0.80;;;;;;;12.77;100.00;98044.31;5034689;28;20245;-81
2022/02/17 02:12:30;;;;;;;1.98;0.80;;;;;;;12.63;100.00;98049.13;5034721;28;20285;-81
2022/02/17 02:14:58;;;;;;;1.15;0.70;;;;;;;12.46;100.00;98037.16;5034846;28;20668;-81
2022/02/17 02:17:26;;;;;;;1.30;0.75;;;;;;;12.38;100.00;98042.41;5035068;28;20204;-81
2022/02/17 02:19:56;;;;;;;1.33;0.70;;;;;;;12.36;100.00;98051.63;5035550;28;20601;-81
2022/02/17 02:22:25;;;;;;;1.08;0.60;;;;;;;12.35;100.00;98029.19;5034582;28;20264;-81
2022/02/17 02:24:52;;;;;;;1.40;0.93;;;;;;;12.39;100.00;98029.75;5034597;28;20204;-81
2022/02/17 02:27:19;;;;;;;1.00;0.60;;;;;;;12.27;100.00;98043.34;5034660;28;20182;-81
2022/02/17 02:29:46;;;;;;;1.85;0.70;;;;;;;12.32;100.00;98037.53;5034673;28;20221;-81
2022/02/17 02:32:13;;;;;;;1.10;0.75;;;;;;;12.34;100.00;98032.84;5034070;28;20284;-81
2022/02/17 02:34:39;;;;;;;1.00;0.73;;;;;;;12.35;100.00;98028.34;5034592;28;20212;-81
2022/02/17 02:37:07;;;;;;;1.63;0.60;;;;;;;12.37;100.00;98013.72;5034843;28;20212;-81
2022/02/17 02:39:35;;;;;;;1.55;0.60;;;;;;;12.34;100.00;98000.47;5034382;28;20562;-81
2022/02/17 02:42:02;;;;;;;1.25;0.70;;;;;;;12.28;100.00;98028.88;5033788;28;20182;-81
2022/02/17 02:44:29;;;;;;;1.00;0.68;;;;;;;12.37;100.00;98029.91;5034182;28;20248;-81
2022/02/17 02:46:56;;;;;;;1.00;0.68;;;;;;;12.51;100.00;98015.16;5034600;28;20198;-81
2022/02/17 02:49:22;;;;;;;2.30;0.60;;;;;;;12.47;100.00;98021.81;5034090;28;20240;-80
2022/02/17 02:51:49;;;;;;;1.15;0.70;;;;;;;12.49;100.00;98036.03;5034166;28;20194;-81
2022/02/17 02:54:16;;;;;;;1.20;0.70;;;;;;;12.53;100.00;98029.38;5033118;28;20674;-81
2022/02/17 02:56:44;;;;;;;1.27;0.60;;;;;;;12.58;100.00;98024.41;5034091;28;20193;-80
2022/02/17 02:59:11;;;;;;;1.00;0.60;;;;;;;12.64;100.00;98036.47;5034052;28;20198;-80
2022/02/17 03:01:38;;;;;;;1.42;0.60;;;;;;;12.64;100.00;98039.16;5033865;28;20637;-81
2022/02/17 03:04:05;;;;;;;1.13;0.70;;;;;;;12.57;100.00;98057.75;5033740;28;20194;-81
2022/02/17 03:06:32;;;;;;;1.60;0.70;;;;;;;12.53;100.00;98045.56;5033925;28;20189;-81
2022/02/17 03:08:59;;;;;;;1.00;0.50;;;;;;;12.53;100.00;98045.56;5034229;28;20686;-81
2022/02/17 03:11:26;;;;;;;1.75;0.60;;;;;;;12.44;100.00;98038.31;5033834;28;20548;-81
2022/02/17 03:13:55;;;;;;;1.00;0.50;;;;;;;12.23;100.00;98032.97;5034003;28;20564;-82
2022/02/17 03:16:23;;;;;;;1.00;0.50;;;;;;;12.32;100.00;98056.44;5033798;28;20281;-83
2022/02/17 03:18:50;;;;;;;1.10;0.60;;;;;;;12.37;100.00;98061.41;5033216;28;20214;-82
2022/02/17 03:21:17;;;;;;;1.00;0.70;;;;;;;12.51;100.00;98067.28;5033730;28;20631;-82
2022/02/17 03:23:43;;;;;;;1.20;0.60;;;;;;;12.51;100.00;98072.69;5034074;28;20202;-81
2022/02/17 03:26:10;;;;;;;1.52;0.63;;;;;;;12.51;100.00;98093.44;5033369;28;20221;-81
2022/02/17 03:28:37;;;;;;;1.52;0.60;;;;;;;12.58;100.00;98088.34;5033389;28;20198;-81
2022/02/17 03:31:04;;;;;;;1.50;0.60;;;;;;;12.45;100.00;98118.28;5033279;28;20214;-81
2022/02/17 03:33:31;;;;;;;2.10;0.90;;;;;;;11.54;100.00;98157.66;5034034;28;20194;-81
2022/02/17 03:35:58;;;;;;;2.95;1.50;;;;;;;11.15;100.00;98157.34;5033707;28;20186;-81
2022/02/17 03:38:24;;;;;;;4.07;1.35;;;;;;;11.06;100.00;98178.66;5034219;28;20609;-82
2022/02/17 03:40:51;;;;;;;2.58;1.50;;;;;;;11.02;100.00;98154.78;5033770;28;20190;-81
2022/02/17 03:43:18;;;;;;;3.90;1.80;;;;;;;10.98;100.00;98162.25;5033963;28;20531;-80
2022/02/17 03:45:44;;;;;;;8.63;2.88;;;;;;;10.75;100.00;98152.53;5033209;28;20218;-80
2022/02/17 03:48:12;;;;;;;7.90;2.58;;;;;;;10.67;100.00;98181.91;5033348;28;20702;-80
2022/02/17 03:50:40;;;;;;;10.90;2.50;;;;;;;10.59;100.00;98178.00;5032455;28;20235;-81
2022/02/17 03:53:07;;;;;;;4.35;2.10;;;;;;;10.58;100.00;98173.63;5032856;28;20238;-81
2022/02/17 03:55:33;;;;;;;9.85;3.03;;;;;;;10.51;100.00;98163.44;5032604;28;20193;-80
2022/02/17 03:58:00;;;;;;;13.07;3.25;;;;;;;10.48;100.00;98180.72;5033435;28;20604;-79
2022/02/17 04:00:27;;;;;;;6.50;2.83;;;;;;;10.38;100.00;98204.81;5033116;28;20198;-80
2022/02/17 04:02:53;;;;;;;5.43;2.50;;;;;;;10.29;100.00;98165.19;5032361;28;20204;-81
2022/02/17 04:05:21;;;;;;;10.82;2.95;;;;;;;10.31;100.00;98191.94;5031884;28;20289;-80
2022/02/17 04:07:48;;;;;;;6.85;3.00;;;;;;;10.30;100.00;98193.78;5033091;28;20677;-82
2022/02/17 04:10:14;;;;;;;7.65;2.90;;;;;;;10.26;100.00;98184.22;5032601;28;20712;-79
2022/02/17 04:12:41;;;;;;;14.18;3.50;;;;;;;10.32;100.00;98205.28;5033020;28;20189;-81
2022/02/17 04:15:10;;;;;;;6.93;2.65;;;;;;;10.36;100.00;98217.53;5032112;28;20214;-80
2022/02/17 04:17:37;;;;;;;11.10;2.72;;;;;;;10.31;100.00;98229.59;5032320;28;20205;-81
2022/02/17 04:20:04;;;;;;;8.27;3.13;;;;;;;10.29;100.00;98231.56;5032734;28;20186;-82
2022/02/17 04:22:33;;;;;;;8.15;2.35;;;;;;;10.43;100.00;98242.97;5032292;28;20186;-80
2022/02/17 04:24:59;;;;;;;8.98;2.63;;;;;;;10.50;100.00;98246.03;5032506;28;20659;-81
2022/02/17 04:27:26;;;;;;;10.43;2.47;;;;;;;10.67;100.00;98249.19;5032314;28;20285;-81
2022/02/17 04:29:52;;;;;;;9.43;3.90;;;;;;;10.75;100.00;98254.84;5032448;28;20206;-80
2022/02/17 04:32:19;;;;;;;10.57;2.58;;;;;;;10.91;100.00;98246.38;5031977;28;20648;-79
2022/02/17 04:34:46;;;;;;;9.52;2.85;;;;;;;10.92;100.00;98253.47;5031838;28;20206;-81
2022/02/17 04:37:12;;;;;;;10.70;2.88;;;;;;;11.05;100.00;98256.88;5032507;28;20540;-81
2022/02/17 04:39:40;;;;;;;6.90;2.30;;;;;;;11.15;100.00;98284.78;5032267;28;20197;-79
2022/02/17 04:42:19;;;;;;;14.57;2.67;;;;;;;11.29;100.00;98264.81;5032342;28;20186;-79
2022/02/17 04:44:46;;;;;;;9.57;3.15;;;;;;;11.34;100.00;98277.91;5032057;28;20994;-80
2022/02/17 04:47:13;;;;;;;6.97;2.55;;;;;;;11.36;100.00;98252.53;5032440;28;20896;-80
2022/02/17 04:49:40;;;;;;;8.13;2.33;;;;;;;11.39;100.00;98257.66;5032593;28;20232;-81
2022/02/17 04:52:08;;;;;;;9.98;4.07;;;;;;;11.40;100.00;98294.41;5032361;28;20201;-81
2022/02/17 04:54:36;;;;;;;11.38;3.33;;;;;;;11.30;100.00;98311.47;5031629;28;20234;-81
2022/02/17 04:57:05;;;;;;;13.52;3.38;;;;;;;10.94;100.00;98306.22;5031874;28;20708;-81
2022/02/17 04:59:31;;;;;;;21.10;2.50;;;;;;;10.76;100.00;98326.53;5032159;28;20632;-81
2022/02/17 05:01:58;;;;;;;14.23;4.10;;;;;;;10.76;100.00;98315.75;5031780;28;20284;-81
2022/02/17 05:04:25;;;;;;;10.70;3.45;;;;;;;10.76;100.00;98310.38;5031564;28;20614;-81
2022/02/17 05:06:51;;;;;;;15.88;3.20;;;;;;;10.75;100.00;98295.22;5032111;28;20195;-82
2022/02/17 05:09:18;;;;;;;7.47;2.97;;;;;;;10.76;100.00;98308.56;5032224;28;20299;-81
2022/02/17 05:11:44;;;;;;;10.65;3.38;;;;;;;10.82;100.00;98321.53;5032030;28;20205;-81
2022/02/17 05:14:12;;;;;;;10.50;3.22;;;;;;;10.92;100.00;98329.75;5031232;28;20198;-80
2022/02/17 05:16:39;;;;;;;17.67;4.10;;;;;;;10.96;100.00;98327.66;5031152;28;20197;-81
2022/02/17 05:19:06;;;;;;;7.65;2.90;;;;;;;10.97;100.00;98343.69;5031943;28;20280;-81
2022/02/17 05:21:32;;;;;;;12.13;3.50;;;;;;;11.09;100.00;98343.69;5031598;28;20280;-80
2022/02/17 05:23:59;;;;;;;18.52;3.00;;;;;;;11.11;100.00;98336.34;5031333;28;20212;-80
2022/02/17 05:26:25;;;;;;;17.08;3.45;;;;;;;11.07;100.00;98341.09;5031384;28;20201;-79
2022/02/17 05:28:52;;;;;;;9.35;2.88;;;;;;;11.05;100.00;98337.69;5031669;28;20190;-79
2022/02/17 05:31:20;;;;;;;14.25;3.65;;;;;;;11.05;100.00;98335.84;5031947;28;20283;-80
2022/02/17 05:33:47;;;;;;;10.43;3.70;;;;;;;10.98;100.00;98345.38;5031895;28;20205;-80
2022/02/17 05:36:13;;;;;;;12.07;3.40;;;;;;;10.97;100.00;98349.09;5031854;28;20324;-81
2022/02/17 05:38:40;;;;;;;11.15;3.30;;;;;;;10.91;100.00;98349.56;5032231;28;20192;-80
2022/02/17 05:41:07;;;;;;;15.85;3.85;;;;;;;10.88;100.00;98348.94;5032166;28;20192;-80
2022/02/17 05:43:33;;;;;;;13.05;3.55;;;;;;;10.86;100.00;98357.16;5031818;28;20197;-80
2022/02/17 05:46:00;;;;;;;16.05;3.35;;;;;;;10.87;100.00;98342.69;5031257;28;20186;-81
2022/02/17 05:48:28;;;;;;;12.93;2.63;;;;;;;10.89;100.00;98362.28;5031768;28;20202;-81
2022/02/17 05:50:54;;;;;;;9.93;2.25;;;;;;;10.90;100.00;98355.94;5031722;28;20941;-80
2022/02/17 05:53:21;;;;;;;12.00;2.70;;;;;;;10.89;100.00;98354.22;5031474;28;20336;-80
2022/02/17 05:55:48;;;;;;;11.00;2.90;;;;;;;10.93;100.00;98368.31;5031830;28;20685;-80
2022/02/17 05:58:15;;;;;;;8.30;2.88;;;;;;;10.98;100.00;98369.63;5031432;28;20218;-80
2022/02/17 06:00:42;;;;;;;14.52;3.17;;;;;;;11.02;100.00;98351.41;5031320;28;20188;-80
2022/02/17 06:03:09;;;;;;;11.25;3.08;;;;;;;11.01;100.00;98377.50;5031763;28;20205;-82
2022/02/17 06:05:37;;;;;;;14.00;3.28;;;;;;;11.13;100.00;98381.03;5031760;28;20239;-81
2022/02/17 06:08:05;;;;;;;9.88;2.88;;;;;;;11.13;100.00;98396.34;5031873;28;20201;-81
2022/02/17 06:10:32;;;;;;;8.38;2.70;;;;;;;10.99;100.00;98383.94;5031313;28;20306;-81
2022/02/17 06:12:58;;;;;;;6.88;2.75;;;;;;;10.87;100.00;98385.78;5031327;28;20316;-81
2022/02/17 06:15:26;;;;;;;8.20;2.60;;;;;;;10.86;100.00;98384.06;5031631;28;21008;-81
2022/02/17 06:17:52;;;;;;;5.32;2.63;;;;;;;10.83;100.00;98392.38;5031086;28;20212;-79
2022/02/17 06:20:19;;;;;;;8.13;2.95;;;;;;;10.84;100.00;98396.81;5031723;28;20224;-80
2022/02/17 06:22:49;;;;;;;10.77;2.72;;;;;;;10.86;100.00;98397.53;5030786;28;20237;-80
2022/02/17 06:25:17;;;;;;;7.60;2.72;;;;;;;10.81;100.00;98413.22;5029423;28;20206;-80
2022/02/17 06:27:46;;;;;;;7.90;3.38;;;;;;;10.81;100.00;98410.50;5031273;28;20623;-78
2022/02/17 06:30:13;;;;;;;7.20;3.05;;;;;;;10.67;100.00;98427.72;5034059;28;20214;-79
2022/02/17 06:32:47;;;;;;;13.77;2.78;;;;;;;10.58;100.00;98426.63;5034490;28;20202;-79
2022/02/17 06:35:14;;;;;;;12.27;3.33;;;;;;;10.53;100.00;98441.38;5034612;28;20588;-79
2022/02/17 06:37:40;;;;;;;9.27;3.25;;;;;;;10.51;100.00;98456.78;5034215;28;20280;-80
2022/02/17 06:40:10;;;;;;;11.13;3.10;;;;;;;10.50;100.00;98453.25;5033932;28;20202;-80
2022/02/17 06:42:37;;;;;;;12.40;3.17;;;;;;;10.48;100.00;98465.94;5022873;28;20202;-82
2022/02/17 06:45:04;;;;;;;14.70;3.65;;;;;;;10.49;100.00;98488.34;5015624;28;20289;-83
2022/02/17 06:47:31;;;;;;;13.15;3.50;;;;;;;10.54;100.00;98456.56;5028676;28;20208;-82
2022/02/17 06:49:58;;;;;;;12.82;3.45;;;;;;;10.53;100.00;98477.22;5035309;28;20211;-83
2022/02/17 06:52:24;;;;;;;11.30;3.63;;;;;;;10.48;100.00;98495.56;5044867;28;20637;-84
2022/02/17 06:54:51;;;;;;;8.70;4.22;;;;;;;10.48;100.00;98498.25;5033282;28;20238;-83
2022/02/17 06:57:22;;;;;;;8.98;3.28;;;;;;;10.51;100.00;98492.63;5031749;28;20200;-83
2022/02/17 06:59:49;;;;;;;19.23;4.78;;;;;;;10.48;100.00;98500.94;5034192;28;20651;-83
2022/02/17 07:02:16;;;;;;;10.52;3.65;;;;;;;10.44;100.00;98491.38;5033112;28;20211;-84
2022/02/17 07:04:43;;;;;;;12.45;3.20;;;;;;;10.43;100.00;98532.72;5032221;28;20207;-82
2022/02/17 07:07:10;;;;;;;13.07;3.78;;;;;;;10.40;100.00;98516.78;5035034;28;20215;-82
2022/02/17 07:09:36;;;;;;;21.30;4.63;;;;;;;10.36;100.00;98523.41;5034077;28;20535;-82
2022/02/17 07:12:03;;;;;;;12.02;4.63;;;;;;;10.30;100.00;98524.69;5031380;28;20218;-83
2022/02/17 07:14:31;;;;;;;17.20;5.07;;;;;;;10.29;100.00;98544.50;5032202;28;20557;-82
2022/02/17 07:16:59;;;;;;;15.80;4.00;;;;;;;10.25;100.00;98550.19;5032668;28;20813;-82
2022/02/17 07:19:26;;;;;;;12.23;3.80;;;;;;;10.23;100.00;98550.31;5032683;28;20264;-80
2022/02/17 07:21:53;;;;;;;16.05;3.67;;;;;;;10.27;100.00;98543.72;5032150;28;20208;-81
2022/02/17 07:24:21;;;;;;;18.75;5.20;;;;;;;10.29;100.00;98557.09;5031288;28;20297;-81
2022/02/17 07:26:47;;;;;;;15.95;3.40;;;;;;;10.33;100.00;98558.56;5031728;28;20241;-82
2022/02/17 07:29:15;;;;;;;21.42;4.22;;;;;;;10.32;100.00;98565.81;5032545;28;20287;-83
2022/02/17 07:31:46;;;;;;;16.77;4.32;;;;;;;10.31;100.00;98566.78;5029563;28;20256;-81
2022/02/17 07:34:13;;;;;;;16.08;4.60;;;;;;;10.38;100.00;98575.28;5031398;28;20212;-82
2022/02/17 07:36:40;;;;;;;26.65;4.40;;;;;;;10.30;100.00;98589.25;5031484;28;20200;-81
2022/02/17 07:39:07;;;;;;;15.38;4.63;;;;;;;10.35;100.00;98594.31;5030579;28;20647;-82
2022/02/17 07:41:36;;;;;;;13.48;4.13;;;;;;;10.33;100.00;98589.03;5029420;28;20296;-84
2022/02/17 07:44:03;;;;;;;15.63;4.57;;;;;;;10.35;99.68;98586.22;5030601;28;20590;-83
2022/02/17 07:46:30;;;;;;;13.10;4.53;;;;;;;10.43;95.54;98575.78;5030926;28;20615;-83
2022/02/17 07:49:00;;;;;;;14.32;4.70;;;;;;;10.51;92.65;98599.41;5030890;28;20282;-81
2022/02/17 07:51:26;;;;;;;13.15;4.57;;;;;;;10.56;92.75;98602.63;5029384;28;20220;-83
2022/02/17 07:53:53;;;;;;;18.25;4.13;;;;;;;10.57;91.26;98621.34;5029960;28;20238;-82
2022/02/17 07:56:20;;;;;;;25.42;5.75;;;;;;;10.59;89.05;98624.81;5031337;28;20284;-81
2022/02/17 07:58:46;;;;;;;19.95;5.50;;;;;;;10.62;88.81;98624.56;5029701;28;20316;-82
2022/02/17 08:01:13;;;;;;;15.40;5.10;;;;;;;10.54;86.53;98632.38;5031584;28;20229;-81
2022/02/17 08:03:40;;;;;;;28.05;5.90;;;;;;;10.57;86.65;98636.66;5031208;28;20292;-81
2022/02/17 08:06:08;;;;;;;19.40;5.03;;;;;;;10.57;84.33;98631.28;5030256;28;20299;-83
2022/02/17 08:08:35;;;;;;;24.77;5.60;;;;;;;10.51;83.75;98632.56;5031090;28;20219;-84
2022/02/17 08:11:02;;;;;;;21.08;6.40;;;;;;;10.55;83.78;98642.16;5029048;28;20324;-82
2022/02/17 08:13:30;;;;;;;28.70;6.32;;;;;;;10.58;84.35;98641.94;5031526;28;20541;-82
2022/02/17 08:15:57;;;;;;;23.25;5.45;;;;;;;10.63;83.46;98655.06;5031331;28;20720;-82
2022/02/17 08:18:23;;;;;;;22.70;5.38;;;;;;;10.72;82.17;98661.56;5030343;28;20289;-82
2022/02/17 08:20:50;;;;;;;24.25;6.25;;;;;;;10.71;82.92;98663.41;5031304;28;20197;-83
2022/02/17 08:23:19;;;;;;;30.08;6.20;;;;;;;10.59;82.08;98648.19;5031013;28;20608;-83
2022/02/17 08:25:45;;;;;;;21.52;6.15;;;;;;;10.66;80.28;98656.66;5032196;28;20214;-83
2022/02/17 08:28:12;;;;;;;26.48;7.85;;;;;;;10.65;79.74;98661.19;5029607;28;20198;-83
2022/02/17 08:30:39;;;;;;;17.63;4.90;;;;;;;10.63;79.99;98669.38;5029449;28;20276;-82
2022/02/17 08:33:12;;;;;;;28.98;6.18;;;;;;;10.71;80.01;98684.94;5031563;28;20211;-82
2022/02/17 08:35:38;;;;;;;24.45;5.95;;;;;;;10.74;79.52;98662.31;5030961;28;20197;-80
2022/02/17 08:38:05;;;;;;;24.77;5.82;;;;;;;10.64;81.07;98670.22;5033854;28;20248;-82
2022/02/17 08:40:33;;;;;;;25.23;6.45;;;;;;;10.67;80.33;98683.44;5033336;28;20254;-83
2022/02/17 08:43:09;;;;;;;20.35;5.57;;;;;;;10.74;80.07;98695.50;5032673;28;20213;-82
2022/02/17 08:45:37;;;;;;;24.10;5.57;;;;;;;10.75;79.99;98707.13;5031923;28;20570;-83
2022/02/17 08:48:04;;;;;;;21.90;6.20;;;;;;;10.90;79.04;98710.53;5032012;28;20233;-83
2022/02/17 08:50:30;;;;;;;25.20;8.00;;;;;;;11.18;78.15;98728.22;5032247;28;20298;-81
2022/02/17 08:52:57;;;;;;;21.08;6.18;;;;;;;11.17;78.23;98724.66;5031919;28;20231;-83
2022/02/17 08:55:24;;;;;;;20.67;5.35;;;;;;;11.15;78.35;98742.78;5032667;28;20202;-83
2022/02/17 08:57:53;;;;;;;21.58;6.40;;;;;;;11.03;79.49;98749.94;5032172;28;20220;-87
2022/02/17 09:00:20;;;;;;;22.75;6.53;;;;;;;11.06;79.90;98725.47;5031972;28;20205;-82
2022/02/17 09:02:47;;;;;;;16.73;5.32;;;;;;;11.04;80.19;98740.88;5032878;28;20707;-82
2022/02/17 09:05:14;;;;;;;21.65;6.20;;;;;;;11.04;80.60;98726.53;5032817;28;20240;-80
2022/02/17 09:07:40;;;;;;;28.10;5.60;;;;;;;11.06;81.20;98733.53;5032858;28;20661;-82
2022/02/17 09:10:08;;;;;;;22.85;5.00;;;;;;;11.04;81.46;98727.41;5031983;28;20208;-81
2022/02/17 09:12:36;;;;;;;21.00;5.72;;;;;;;10.97;81.78;98719.91;5031581;28;20228;-87
2022/02/17 09:15:06;;;;;;;21.50;5.65;;;;;;;10.97;80.69;98718.06;5031547;28;20233;-86
2022/02/17 09:17:33;;;;;;;25.25;5.25;;;;;;;10.91;81.16;98726.56;5030169;28;20252;-83
2022/02/17 09:20:00;;;;;;;23.13;6.10;;;;;;;10.92;79.94;98733.69;5030587;28;20210;-85
2022/02/17 09:22:26;;;;;;;23.30;5.22;;;;;;;10.93;79.44;98738.09;5029756;28;20206;-83
2022/02/17 09:24:53;;;;;;;15.90;6.07;;;;;;;11.06;78.74;98719.22;5031306;28;20225;-82
2022/02/17 09:27:20;;;;;;;21.75;5.88;;;;;;;11.41;77.10;98740.81;5032248;28;20210;-87
2022/02/17 09:29:47;;;;;;;31.63;6.03;;;;;;;11.69;74.22;98728.81;5030921;28;20194;-84
2022/02/17 09:32:15;;;;;;;18.42;4.93;;;;;;;11.54;74.69;98748.84;5030266;28;20312;-85
2022/02/17 09:34:42;;;;;;;23.70;5.63;;;;;;;11.36;76.44;98756.47;5030447;28;20210;-83
2022/02/17 09:37:08;;;;;;;24.70;5.78;;;;;;;11.33;76.88;98751.31;5031340;28;20288;-83
2022/02/17 09:39:36;;;;;;;27.25;6.95;;;;;;;11.40;77.32;98749.88;5030103;28;20289;-84
2022/02/17 09:42:04;;;;;;;17.30;5.72;;;;;;;11.57;76.79;98739.66;5030693;28;20198;-85
2022/02/17 09:44:31;;;;;;;19.10;5.85;;;;;;;11.37;76.86;98752.78;5030722;28;20202;-82
2022/02/17 09:46:58;;;;;;;26.27;5.82;;;;;;;11.34;77.59;98771.03;5030609;28;20643;-86
2022/02/17 09:49:27;;;;;;;25.60;5.38;;;;;;;10.71;92.28;98775.63;5029507;28;20292;-84
2022/02/17 09:51:54;;;;;;;22.10;5.70;;;;;;;10.40;100.00;98767.03;5029906;28;20229;-83
2022/02/17 09:54:21;;;;;;;22.63;5.97;;;;;;;10.44;95.04;98763.16;5030084;28;20625;-83
2022/02/17 09:56:48;;;;;;;18.13;5.45;;;;;;;10.53;93.23;98751.75;5029382;28;20554;-82
2022/02/17 09:59:16;;;;;;;26.75;5.70;;;;;;;10.79;90.31;98752.56;5029162;28;20206;-85
2022/02/17 10:01:52;;;;;;;21.70;5.70;;;;;;;10.91;87.70;98753.50;5029774;28;20300;-84
2022/02/17 10:04:22;;;;;;;21.20;6.07;;;;;;;11.06;83.60;98752.41;5033157;28;20212;-85
2022/02/17 10:06:51;;;;;;;18.27;5.93;;;;;;;11.24;84.04;98770.88;5034257;28;20210;-84
2022/02/17 10:09:20;;;;;;;20.00;4.90;;;;;;;10.98;89.66;98788.94;5033788;28;20321;-85
2022/02/17 10:11:48;;;;;;;16.85;5.72;;;;;;;10.62;96.19;98806.75;5034739;28;20225;-84
2022/02/17 10:14:17;;;;;;;31.70;5.80;;;;;;;10.19;100.00;98786.38;5034861;28;20268;-85
2022/02/17 10:16:59;;;;;;;23.05;5.72;;;;;;;10.10;100.00;98781.63;5034146;28;20260;-84
2022/02/17 10:19:27;;;;;;;30.90;6.28;;;;;;;10.18;100.00;98779.28;5030138;28;20656;-85
2022/02/17 10:22:07;;;;;;;17.67;5.60;;;;;;;10.42;98.36;98789.31;5032369;28;21037;-85
2022/02/17 10:24:36;;;;;;;20.70;5.32;;;;;;;10.79;94.83;98808.28;5033869;28;20288;-84
2022/02/17 10:27:05;;;;;;;20.00;5.15;;;;;;;10.99;86.29;98802.31;5033106;28;20208;-85
2022/02/17 10:29:34;;;;;;;27.30;5.40;;;;;;;11.00;85.41;98822.00;5031921;28;20210;-83
2022/02/17 10:32:20;;;;;;;18.15;5.93;;;;;;;11.11;83.55;98823.94;5032212;28;20233;-82
2022/02/17 10:34:47;;;;;;;17.48;5.82;;;;;;;10.99;80.88;98823.84;4992238;28;20302;-84
2022/02/17 10:37:15;;;;;;;27.63;5.85;;;;;;;11.23;79.61;98823.03;4991288;28;20211;-86
2022/02/17 10:39:44;;;;;;;21.77;5.20;;;;;;;11.15;78.64;98834.38;4990683;28;20309;-84
2022/02/17 10:42:13;;;;;;;15.75;5.88;;;;;;;11.14;78.41;98816.47;4989137;28;20617;-82
2022/02/17 10:44:41;;;;;;;29.60;6.18;;;;;;;11.17;78.93;98815.38;4989214;28;20261;-86
2022/02/17 10:47:16;;;;;;;20.63;5.30;;;;;;;11.28;78.31;98853.19;4990397;28;20306;-83
2022/02/17 10:49:45;;;;;;;17.08;4.90;;;;;;;11.26;77.23;98837.16;4991261;28;20217;-83
2022/02/17 10:52:13;;;;;;;19.55;4.63;;;;;;;11.47;75.84;98840.09;4992078;28;20281;-82
2022/02/17 10:54:41;;;;;;;16.23;4.68;;;;;;;11.51;75.26;98854.22;4991675;28;20687;-80
2022/02/17 10:57:08;;;;;;;20.02;4.72;;;;;;;11.61;75.75;98827.44;4991325;28;20195;-81
2022/02/17 11:02:22;;;;;;;24.73;5.03;;;;;;;11.51;73.62;98832.66;4991001;28;20331;-82
2022/02/17 11:04:49;;;;;;;22.15;5.47;;;;;;;11.40;75.24;98827.19;4990955;28;20593;-81
2022/02/17 11:07:17;;;;;;;17.15;4.90;;;;;;;11.28;76.11;98853.19;4991554;28;21014;-80
2022/02/17 11:09:46;;;;;;;21.48;5.38;;;;;;;11.12;79.17;98841.81;4991365;28;20255;-81
2022/02/17 11:12:14;;;;;;;22.77;6.20;;;;;;;11.04;87.18;98861.22;5019569;28;20289;-81
2022/02/17 11:14:42;;;;;;;22.30;5.60;;;;;;;10.55;94.16;98886.22;5027282;28;20206;-81
2022/02/17 11:17:10;;;;;;;22.25;6.50;;;;;;;10.18;100.00;98886.03;5032268;28;20193;-81
2022/02/17 11:19:37;;;;;;;33.80;7.63;;;;;;;9.83;100.00;98891.94;5032734;28;20647;-82
2022/02/17 11:22:05;;;;;;;22.67;6.07;;;;;;;9.81;100.00;98883.09;5032611;28;20613;-81
2022/02/17 11:24:50;;;;;;;20.65;6.03;;;;;;;9.80;100.00;98879.56;5032227;28;20202;-82
2022/02/17 11:27:18;;;;;;;23.98;6.72;;;;;;;9.70;100.00;98899.97;5032444;28;20650;-81